Airfield :
LOGIN :

Register | Disclaimer

   EN    FR    IT 

 










Legend :    VFR   Marginal VFR   IFR   Intensive IFR   Very Intensive IFR
Visi :
Ceiling :
>= 8 km
>= 3000ft
5 to 8 km
1000 to 3000 ft
1500m to 5 km
500 to 1000 ft
800 to 1500m
200 to 500 ft
< 800m
< 200 ft
Symbols :   Thunderstorms  Fog  Heavy snow  Heavy precipitations  Wind > 20 kt
SIGMETs :     Misc.  Thunderstorms  Icing  Turbulence  Mountain Waves  Volcanic Ashes






- Airport Elevation : -15 ft
- IATA code : RTM


EHRD - Rotterdam Zestienhoven

CURRENT METAR :
  • 150225Z AUTO 02004KT 9999 NSC 03/02 Q1002 NOSIG

EXPIRED METARs :
  • 150155Z AUTO 05008KT 010V070 9999 NSC 04/03 Q1002 NOSIG
  • 150125Z AUTO 03006KT 360V060 9999 NSC 04/03 Q1002 NOSIG
  • 150055Z AUTO 05005KT 9999 NSC 04/03 Q1003 NOSIG
  • 150025Z AUTO VRB02KT 9999 NSC 03/02 Q1003 NOSIG
  • 142355Z AUTO 02003KT 9999 NSC 04/03 Q1003 NOSIG

TAF TAF EHRD
Valid from the 15 at 00:00 until the 16 at 06:00 UTC


142320Z 1500/1606 08007KT CAVOK
BECMG 1503/1506 05013KT BKN014
PROB30 1503/1508 6000 BKN008
BECMG 1512/1515 SCT018
BECMG 1515/1518 12006KT
BECMG 1522/1601 4000 BR
PROB40 1600/1606 1500 BCFG



MET'MAP, your aeronautical weather chart ! - Copyright ORBIFLY December 2007 - Disclaimer

ORBIFLY MET'MAP TEAM :

Programming & Development : Alexandra Zaïnal
Concept & Development : Baudouin d'Aumeries
Co-Development & Prog : Marc-Olivier Méhu
Technical & hardware support : Manuel Goepfert

Contact : metmap@orbifly.com




SOURCES & CREDITS :

   NOAA